Time;durP1;ratioP1;P1;durP2;ratioP2;P2;SDS_P1;SDS_P2;PMS_P1;PMS_P2;Temp;Humidity;BMP_temperature;BMP_pressure;BME280_temperature;BME280_humidity;BME280_pressure;Samples;Min_cycle;Max_cycle;Signal;HPM_P1;HPM_P2
2021/03/07 00:03:48;;;;;;;19.02;10.18;;;0.00;99.90;;;;;;10528666;28;20048;-75
2021/03/07 00:08:49;;;;;;;16.90;9.70;;;0.00;99.90;;;;;;10528739;28;20522;-75
2021/03/07 00:13:54;;;;;;;15.70;9.75;;;0.00;99.90;;;;;;10528625;28;20217;-75
2021/03/07 00:18:56;;;;;;;14.75;9.63;;;-0.10;99.90;;;;;;10529506;28;20088;-75
2021/03/07 00:23:57;;;;;;;49.00;11.35;;;-0.20;99.90;;;;;;10529439;28;20055;-75
2021/03/07 00:28:59;;;;;;;14.10;9.35;;;-0.20;99.90;;;;;;10528834;28;20039;-75
2021/03/07 00:34:01;;;;;;;11.32;8.07;;;-0.20;99.90;;;;;;10527952;28;20134;-75
2021/03/07 00:39:04;;;;;;;17.52;11.57;;;-0.30;99.90;;;;;;10527708;28;20075;-75
2021/03/07 00:44:15;;;;;;;14.57;9.48;;;-0.30;99.90;;;;;;10526936;28;20421;-76
2021/03/07 00:49:25;;;;;;;13.55;9.48;;;-0.30;99.90;;;;;;10529057;28;20131;-75
2021/03/07 00:54:27;;;;;;;15.43;8.52;;;-0.30;99.90;;;;;;10527635;28;20068;-75
2021/03/07 00:59:28;;;;;;;14.38;8.77;;;-0.40;99.90;;;;;;10528846;28;20068;-75
2021/03/07 01:04:30;;;;;;;12.73;9.00;;;-0.40;99.90;;;;;;10528306;28;20182;-76
2021/03/07 01:09:31;;;;;;;14.55;9.60;;;-0.60;99.90;;;;;;10531902;28;20138;-75
2021/03/07 01:14:37;;;;;;;17.70;9.73;;;-0.60;99.90;;;;;;10569890;28;20047;-75
2021/03/07 01:19:39;;;;;;;14.45;9.75;;;-0.70;99.90;;;;;;10569724;28;20108;-75
2021/03/07 01:24:40;;;;;;;13.52;9.32;;;-0.70;99.90;;;;;;10570228;28;20049;-75
2021/03/07 01:29:41;;;;;;;12.77;8.70;;;-0.80;99.90;;;;;;10569646;28;20062;-75
2021/03/07 01:34:43;;;;;;;13.70;9.25;;;-0.90;99.90;;;;;;10551891;28;20075;-75
2021/03/07 01:39:44;;;;;;;17.40;9.32;;;-0.90;99.90;;;;;;10569634;28;20075;-75
2021/03/07 01:44:56;;;;;;;14.68;9.55;;;-0.90;99.90;;;;;;10569277;28;20171;-75
2021/03/07 01:49:58;;;;;;;14.63;9.73;;;-1.00;99.90;;;;;;10568163;28;20071;-75
2021/03/07 01:55:00;;;;;;;15.20;9.18;;;-1.00;99.90;;;;;;10569566;28;20079;-75
2021/03/07 02:00:03;;;;;;;16.58;9.18;;;-1.00;99.90;;;;;;10559729;28;20092;-75
2021/03/07 02:05:12;;;;;;;14.02;8.90;;;-1.00;99.90;;;;;;10576777;28;20082;-76
2021/03/07 02:10:30;;;;;;;13.23;9.20;;;-1.00;99.90;;;;;;10576642;28;20052;-74
2021/03/07 02:15:32;;;;;;;17.33;10.05;;;-1.00;99.90;;;;;;10534782;28;20048;-75
2021/03/07 02:20:36;;;;;;;13.65;9.27;;;-1.10;99.90;;;;;;10573228;28;20509;-75
2021/03/07 02:25:38;;;;;;;13.65;9.25;;;-1.10;99.90;;;;;;10575925;28;20078;-76
2021/03/07 02:30:40;;;;;;;14.50;8.80;;;-1.20;99.90;;;;;;10575850;28;20187;-75
2021/03/07 02:35:50;;;;;;;13.68;8.65;;;-1.20;99.90;;;;;;10558140;28;20082;-75
2021/03/07 02:40:54;;;;;;;;;;;-1.20;99.90;;;;;;10575786;28;20044;-75
2021/03/07 02:45:59;;;;;;;14.98;9.13;;;-1.30;99.90;;;;;;10557195;28;20439;-75
2021/03/07 02:51:03;;;;;;;13.40;8.85;;;-1.30;99.90;;;;;;10575317;28;20050;-75
2021/03/07 02:56:16;;;;;;;14.23;8.95;;;-1.30;99.90;;;;;;10575083;28;20075;-76
2021/03/07 03:01:19;;;;;;;15.15;9.15;;;-1.30;99.90;;;;;;10576122;28;20047;-75
2021/03/07 03:06:22;;;;;;;12.30;9.20;;;-1.40;99.90;;;;;;10583087;28;20478;-75
2021/03/07 03:11:35;;;;;;;12.10;8.70;;;-1.50;99.90;;;;;;10581882;28;20082;-75
2021/03/07 03:16:38;;;;;;;11.60;7.90;;;-1.50;99.90;;;;;;10582141;28;20507;-75
2021/03/07 03:21:42;;;;;;;14.85;8.65;;;-1.50;99.90;;;;;;10581510;28;20047;-75
2021/03/07 03:26:44;;;;;;;13.77;8.70;;;-1.50;99.90;;;;;;10563819;28;20423;-76
2021/03/07 03:31:46;;;;;;;12.43;7.90;;;-1.50;99.90;;;;;;10563977;28;20475;-75
2021/03/07 03:36:47;;;;;;;12.23;8.40;;;-1.50;99.90;;;;;;10581655;28;20101;-75
2021/03/07 03:41:54;;;;;;;12.40;8.23;;;-1.50;99.90;;;;;;10580982;28;20518;-75
2021/03/07 03:46:57;;;;;;;12.77;8.57;;;-1.60;99.90;;;;;;10580439;28;20390;-75
2021/03/07 03:52:05;;;;;;;12.32;8.18;;;-1.70;99.90;;;;;;10563331;28;20412;-75
2021/03/07 03:57:08;;;;;;;14.60;8.90;;;-1.60;99.90;;;;;;10562614;28;20082;-75
2021/03/07 04:02:11;;;;;;;16.77;10.10;;;-1.60;99.90;;;;;;10561040;28;20400;-75
2021/03/07 04:07:14;;;;;;;11.80;8.63;;;-1.70;99.90;;;;;;10575734;28;20519;-76
2021/03/07 04:12:16;;;;;;;15.55;8.85;;;-1.80;99.90;;;;;;10573531;28;20131;-75
2021/03/07 04:17:27;;;;;;;13.20;8.80;;;-1.90;99.90;;;;;;10573006;28;20070;-75
2021/03/07 04:22:28;;;;;;;;;;;-1.90;99.90;;;;;;10572998;28;20599;-75
2021/03/07 04:27:31;;;;;;;13.40;8.88;;;-1.90;99.90;;;;;;10554564;28;19963;-75
2021/03/07 04:32:34;;;;;;;16.45;9.68;;;-1.90;99.90;;;;;;10571465;28;20047;-75
2021/03/07 04:37:36;;;;;;;13.32;8.80;;;-1.90;99.90;;;;;;10571989;28;20051;-75
2021/03/07 04:42:41;;;;;;;22.48;12.65;;;-2.00;99.90;;;;;;10572124;28;20521;-75
2021/03/07 04:47:43;;;;;;;15.55;9.30;;;-2.00;99.90;;;;;;10571720;28;20132;-75
2021/03/07 04:52:45;;;;;;;15.52;9.32;;;-2.00;99.90;;;;;;10571712;28;20036;-76
2021/03/07 04:57:47;;;;;;;23.60;12.05;;;-2.00;99.90;;;;;;10571584;28;20079;-75
2021/03/07 05:02:48;;;;;;;19.40;10.95;;;-2.10;99.90;;;;;;10552828;28;20135;-75
2021/03/07 05:07:52;;;;;;;18.77;9.98;;;-2.10;99.90;;;;;;10571393;28;20051;-76
2021/03/07 05:12:54;;;;;;;14.35;9.38;;;-2.20;99.90;;;;;;10570126;28;20059;-74
2021/03/07 05:17:55;;;;;;;14.27;8.70;;;-2.10;99.90;;;;;;10570946;28;20089;-74
2021/03/07 05:22:57;;;;;;;14.23;9.02;;;-2.10;99.90;;;;;;10572884;28;20081;-75
2021/03/07 05:27:58;;;;;;;12.40;8.93;;;-2.10;99.90;;;;;;10570470;28;20432;-76
2021/03/07 05:33:00;;;;;;;12.90;8.40;;;-2.20;99.90;;;;;;10553525;28;20071;-75
2021/03/07 05:38:01;;;;;;;14.70;8.60;;;-2.20;99.90;;;;;;10552605;28;20047;-75
2021/03/07 05:43:06;;;;;;;14.30;8.57;;;-2.30;99.90;;;;;;10570305;28;20044;-75
2021/03/07 05:48:08;;;;;;;16.40;10.43;;;-2.30;99.90;;;;;;10569703;28;20054;-76
2021/03/07 05:53:11;;;;;;;16.65;10.15;;;-2.30;99.90;;;;;;10552026;28;20069;-75
2021/03/07 05:58:13;;;;;;;17.05;10.20;;;-2.30;99.90;;;;;;10570648;28;20055;-76
2021/03/07 06:03:15;;;;;;;13.13;8.73;;;-2.30;99.90;;;;;;10551698;28;20061;-74
2021/03/07 06:08:17;;;;;;;13.30;9.05;;;-2.30;99.90;;;;;;10569925;28;20113;-76
2021/03/07 06:13:19;;;;;;;16.17;9.55;;;-2.30;99.90;;;;;;10552378;28;20055;-76
2021/03/07 06:18:23;;;;;;;13.32;8.77;;;-2.30;99.90;;;;;;10569421;28;20097;-75
2021/03/07 06:23:45;;;;;;;13.63;9.45;;;-2.20;99.90;;;;;;10569099;28;20138;-75
2021/03/07 06:28:46;;;;;;;;;;;-2.10;99.90;;;;;;10569678;28;20123;-74
2021/03/07 06:33:56;;;;;;;13.18;9.05;;;-2.20;99.90;;;;;;10551276;28;19923;-75
2021/03/07 06:39:01;;;;;;;13.32;8.75;;;-2.10;99.90;;;;;;10570137;28;20048;-75
2021/03/07 06:44:07;;;;;;;13.70;9.45;;;-2.00;99.90;;;;;;10573664;28;20087;-75
2021/03/07 06:49:25;;;;;;;12.85;9.77;;;-1.80;99.90;;;;;;10576451;28;20067;-75
2021/03/07 06:54:28;;;;;;;12.90;9.13;;;-1.80;99.90;;;;;;10576513;28;20036;-76
2021/03/07 06:59:30;;;;;;;18.33;9.60;;;-1.60;99.90;;;;;;10575524;28;20445;-75
2021/03/07 07:04:40;;;;;;;17.40;10.48;;;-1.50;99.90;;;;;;10557245;28;20123;-75
2021/03/07 07:09:43;;;;;;;17.13;9.63;;;-1.40;99.90;;;;;;10557643;28;20070;-74
2021/03/07 07:14:44;;;;;;;13.90;9.60;;;-1.40;99.90;;;;;;10557147;28;20491;-75
2021/03/07 07:19:48;;;;;;;16.52;10.63;;;-1.30;99.90;;;;;;10572988;28;20067;-75
2021/03/07 07:24:50;;;;;;;13.38;9.93;;;-1.20;99.90;;;;;;10574503;28;20138;-76
2021/03/07 07:29:51;;;;;;;13.50;9.88;;;-1.00;99.90;;;;;;10574705;28;20466;-75
2021/03/07 07:35:14;;;;;;;14.82;9.77;;;-0.90;99.90;;;;;;10574619;28;20075;-75
2021/03/07 07:40:16;;;;;;;13.75;10.25;;;-0.90;99.90;;;;;;10556131;28;20457;-75
2021/03/07 07:45:20;;;;;;;14.95;10.80;;;-0.70;99.90;;;;;;10574112;28;20126;-75
2021/03/07 07:50:42;;;;;;;17.95;11.27;;;-0.40;99.90;;;;;;10573513;28;20548;-74
2021/03/07 07:55:50;;;;;;;;;;;-0.30;99.90;;;;;;10573602;28;20114;-75
2021/03/07 08:00:53;;;;;;;18.23;11.35;;;-0.20;99.90;;;;;;10573574;28;19974;-75
2021/03/07 08:05:54;;;;;;;13.73;10.13;;;0.30;99.90;;;;;;10572819;28;20507;-75
2021/03/07 08:10:58;;;;;;;13.88;9.85;;;0.80;99.90;;;;;;10572830;28;20538;-75
2021/03/07 08:16:00;;;;;;;15.35;10.25;;;1.10;99.90;;;;;;10572269;28;20075;-75
2021/03/07 08:21:08;;;;;;;18.52;11.85;;;1.50;99.90;;;;;;10571692;28;20051;-74
2021/03/07 08:26:10;;;;;;;14.70;10.45;;;1.60;99.90;;;;;;10571496;28;20094;-75
2021/03/07 08:31:32;;;;;;;16.73;10.70;;;1.90;99.90;;;;;;10572863;28;20090;-75
2021/03/07 08:36:51;;;;;;;24.40;11.98;;;2.20;99.90;;;;;;10571472;28;20048;-74
2021/03/07 08:41:52;;;;;;;17.55;10.88;;;2.40;99.90;;;;;;10553385;28;20461;-75
2021/03/07 08:46:54;;;;;;;14.43;10.38;;;2.40;99.90;;;;;;10570959;28;20051;-75
2021/03/07 08:52:05;;;;;;;16.08;10.82;;;2.70;99.90;;;;;;10553368;28;20048;-76
2021/03/07 08:57:08;;;;;;;16.35;10.60;;;2.90;99.90;;;;;;10570875;28;20078;-75
2021/03/07 09:02:09;;;;;;;15.85;9.65;;;3.20;99.90;;;;;;10571146;28;20051;-74
2021/03/07 09:07:11;;;;;;;14.77;9.63;;;3.50;99.90;;;;;;10570030;28;20094;-75
2021/03/07 09:12:17;;;;;;;13.00;8.30;;;3.60;99.90;;;;;;10569670;28;20503;-74
2021/03/07 09:17:21;;;;;;;11.88;7.95;;;3.80;99.90;;;;;;10570866;27;20039;-75
2021/03/07 09:22:25;;;;;;;12.80;8.50;;;3.90;99.90;;;;;;10566525;28;20496;-75
2021/03/07 09:27:38;;;;;;;10.20;7.60;;;3.90;99.90;;;;;;10550225;28;20040;-75
2021/03/07 09:32:44;;;;;;;12.93;7.72;;;4.30;99.10;;;;;;10565812;28;20054;-75
2021/03/07 09:38:01;;;;;;;13.55;8.98;;;4.60;98.10;;;;;;10567549;28;20180;-75
2021/03/07 09:43:12;;;;;;;12.00;8.35;;;4.80;96.80;;;;;;10566779;28;20055;-74
2021/03/07 09:48:15;;;;;;;15.47;8.43;;;4.70;94.40;;;;;;10565710;28;20516;-74
2021/03/07 09:53:18;;;;;;;9.20;7.20;;;4.90;94.90;;;;;;10566566;28;20083;-75
2021/03/07 09:58:19;;;;;;;13.50;7.55;;;5.40;91.40;;;;;;10568188;28;20039;-75
2021/03/07 10:03:23;;;;;;;10.68;7.25;;;5.40;90.20;;;;;;10569544;28;20154;-75
2021/03/07 10:08:25;;;;;;;12.38;7.45;;;5.50;85.90;;;;;;10551183;28;20130;-67
2021/03/07 10:13:28;;;;;;;10.65;7.00;;;5.60;82.70;;;;;;10569514;28;20146;-67
2021/03/07 10:18:29;;;;;;;10.73;7.45;;;5.80;81.90;;;;;;10555573;28;20078;-67
2021/03/07 10:23:33;;;;;;;13.52;7.20;;;5.80;81.10;;;;;;10577097;28;20419;-67
2021/03/07 10:28:35;;;;;;;11.40;7.70;;;6.00;77.60;;;;;;10577805;28;20068;-67
2021/03/07 10:33:37;;;;;;;11.70;6.53;;;6.30;77.60;;;;;;10576233;28;20097;-67
2021/03/07 10:38:40;;;;;;;12.80;6.28;;;6.40;72.90;;;;;;10553641;28;20039;-67
2021/03/07 10:43:54;;;;;;;10.25;5.80;;;6.50;69.80;;;;;;10556705;28;20127;-67
2021/03/07 10:48:56;;;;;;;9.70;5.95;;;6.60;62.90;;;;;;10575462;28;20079;-67
2021/03/07 10:53:58;;;;;;;11.23;6.78;;;6.80;63.70;;;;;;10575698;28;20568;-67
2021/03/07 10:59:00;;;;;;;10.05;6.80;;;6.80;64.20;;;;;;10557805;28;20123;-67
2021/03/07 11:04:02;;;;;;;11.30;6.57;;;6.90;63.00;;;;;;10576271;28;20082;-67
2021/03/07 11:09:04;;;;;;;10.27;6.18;;;7.20;61.80;;;;;;10574956;28;20079;-67
2021/03/07 11:14:05;;;;;;;9.93;6.00;;;7.30;60.00;;;;;;10575614;28;20100;-67
2021/03/07 11:19:07;;;;;;;11.60;6.20;;;7.30;60.40;;;;;;10574986;28;20052;-67
2021/03/07 11:24:09;;;;;;;9.25;5.40;;;7.50;59.00;;;;;;10553505;28;20043;-67
2021/03/07 11:29:11;;;;;;;7.30;5.10;;;7.50;55.00;;;;;;10571780;28;20054;-67
2021/03/07 11:34:32;;;;;;;6.85;4.53;;;7.60;54.00;;;;;;10570350;28;20114;-67
2021/03/07 11:39:35;;;;;;;6.47;4.20;;;7.70;53.00;;;;;;10571580;28;20511;-67
2021/03/07 11:44:38;;;;;;;8.45;4.65;;;8.00;50.70;;;;;;10572157;28;20051;-67
2021/03/07 11:49:41;;;;;;;7.18;4.55;;;8.10;50.20;;;;;;10571389;28;20035;-67
2021/03/07 11:54:44;;;;;;;7.65;4.57;;;8.20;48.60;;;;;;10568252;28;20058;-67
2021/03/07 11:59:47;;;;;;;7.72;4.50;;;8.10;47.70;;;;;;10571989;28;20047;-67
2021/03/07 12:04:50;;;;;;;6.18;4.03;;;8.30;49.60;;;;;;10573076;28;20104;-67
2021/03/07 12:09:52;;;;;;;5.72;3.95;;;8.40;46.20;;;;;;10572011;28;20043;-67
2021/03/07 12:14:55;;;;;;;6.55;3.85;;;8.50;44.70;;;;;;10573352;28;20120;-67
2021/03/07 12:19:58;;;;;;;6.03;3.88;;;8.70;45.70;;;;;;10572325;28;20474;-67
2021/03/07 12:25:01;;;;;;;5.55;3.75;;;8.80;43.90;;;;;;10572264;28;20112;-67
2021/03/07 12:30:05;;;;;;;5.53;3.90;;;8.80;44.50;;;;;;10572235;28;20054;-67
2021/03/07 12:35:08;;;;;;;6.05;3.83;;;9.00;44.00;;;;;;10571204;28;20048;-67
2021/03/07 12:40:11;;;;;;;6.65;4.00;;;9.20;42.80;;;;;;10570616;28;20126;-67
2021/03/07 12:45:14;;;;;;;6.43;4.47;;;9.10;43.50;;;;;;10571814;28;20048;-67
2021/03/07 12:50:17;;;;;;;7.78;3.72;;;9.30;43.40;;;;;;10571176;28;20449;-67
2021/03/07 12:55:20;;;;;;;6.95;4.03;;;9.40;42.10;;;;;;10571897;28;20134;-67
2021/03/07 13:00:24;;;;;;;6.80;3.83;;;9.50;43.30;;;;;;10571335;28;20047;-67
2021/03/07 13:05:28;;;;;;;5.80;3.67;;;9.40;42.40;;;;;;10570856;28;20051;-67
2021/03/07 13:10:31;;;;;;;7.38;3.90;;;9.50;42.60;;;;;;10552815;28;20055;-67
2021/03/07 13:15:34;;;;;;;6.55;4.30;;;9.60;41.10;;;;;;10570801;28;20450;-67
2021/03/07 13:20:39;;;;;;;7.35;3.90;;;9.70;42.10;;;;;;10571059;28;20043;-67
2021/03/07 13:25:44;;;;;;;8.60;4.03;;;10.10;41.30;;;;;;10570607;28;20051;-67
2021/03/07 13:30:46;;;;;;;7.38;4.00;;;10.30;41.10;;;;;;10570539;28;20085;-67
2021/03/07 13:35:49;;;;;;;6.70;4.00;;;10.20;40.90;;;;;;10551036;28;20039;-67
2021/03/07 13:40:52;;;;;;;6.63;4.03;;;10.40;40.50;;;;;;10568396;28;20040;-67
2021/03/07 13:45:56;;;;;;;6.93;4.10;;;10.40;40.60;;;;;;10566760;28;20052;-67
2021/03/07 13:50:58;;;;;;;5.63;3.70;;;10.70;40.80;;;;;;10568616;28;20076;-67
2021/03/07 13:56:02;;;;;;;6.43;4.10;;;10.60;39.20;;;;;;10576915;28;20062;-67
2021/03/07 14:01:05;;;;;;;5.28;3.72;;;10.80;39.90;;;;;;10576668;28;20043;-68
2021/03/07 14:06:26;;;;;;;6.80;4.15;;;10.90;39.80;;;;;;10576292;28;20422;-67
2021/03/07 14:11:29;;;;;;;5.90;4.28;;;10.80;38.60;;;;;;10558219;28;20510;-67
2021/03/07 14:16:31;;;;;;;6.75;4.60;;;10.80;39.50;;;;;;10575806;28;20569;-67
2021/03/07 14:21:34;;;;;;;9.45;4.88;;;10.60;39.90;;;;;;10575032;28;20101;-67
2021/03/07 14:26:37;;;;;;;8.27;4.00;;;10.90;40.60;;;;;;10576234;28;20040;-67
2021/03/07 14:31:40;;;;;;;5.90;3.95;;;11.00;40.50;;;;;;10552636;28;20066;-67
2021/03/07 14:36:43;;;;;;;6.82;3.70;;;11.00;40.60;;;;;;10571056;28;20426;-67
2021/03/07 14:41:46;;;;;;;6.22;4.13;;;11.00;39.60;;;;;;10574795;28;20055;-67
2021/03/07 14:46:49;;;;;;;5.07;3.70;;;11.00;39.50;;;;;;10574245;28;20093;-67
2021/03/07 14:51:52;;;;;;;5.80;3.83;;;11.00;39.90;;;;;;10573277;28;20044;-67
2021/03/07 14:56:54;;;;;;;5.03;3.70;;;11.00;39.30;;;;;;10572080;28;20561;-67
2021/03/07 15:01:57;;;;;;;5.50;3.60;;;11.10;39.30;;;;;;10560446;28;20074;-67
2021/03/07 15:07:01;;;;;;;7.10;3.80;;;11.00;38.20;;;;;;10573541;28;20055;-67
2021/03/07 15:12:04;;;;;;;7.25;3.47;;;10.90;38.30;;;;;;10573366;28;20056;-67
2021/03/07 15:17:07;;;;;;;135.80;7.75;;;10.80;37.80;;;;;;10574190;28;20495;-67
2021/03/07 15:22:10;;;;;;;5.35;3.70;;;10.80;37.90;;;;;;10573525;28;20047;-67
2021/03/07 15:27:12;;;;;;;6.47;4.00;;;10.70;37.90;;;;;;10571377;28;20592;-67
2021/03/07 15:32:15;;;;;;;9.52;4.40;;;10.70;38.90;;;;;;10572751;28;20423;-67
2021/03/07 15:37:18;;;;;;;6.85;4.07;;;10.60;39.10;;;;;;10567146;28;20468;-67
2021/03/07 15:42:21;;;;;;;9.82;3.90;;;10.60;39.20;;;;;;10572390;28;20085;-67
2021/03/07 15:47:25;;;;;;;6.40;4.50;;;10.50;40.20;;;;;;10572038;28;20048;-67
2021/03/07 15:52:47;;;;;;;8.45;4.63;;;10.30;40.30;;;;;;10572017;28;20495;-67
2021/03/07 15:57:49;;;;;;;7.15;4.80;;;10.20;40.50;;;;;;10571242;28;20070;-67
2021/03/07 16:02:52;;;;;;;7.55;4.53;;;10.20;41.20;;;;;;10571759;28;20365;-67
2021/03/07 16:07:55;;;;;;;6.97;4.38;;;10.10;42.20;;;;;;10571946;28;20067;-67
2021/03/07 16:12:58;;;;;;;6.15;4.45;;;10.00;42.20;;;;;;10497839;28;20076;-67
2021/03/07 16:18:19;;;;;;;;;;;9.80;42.80;;;;;;10487335;28;20552;-67
2021/03/07 16:23:23;;;;;;;6.72;4.68;;;9.60;42.30;;;;;;10487368;28;19928;-67
2021/03/07 16:28:26;;;;;;;6.32;4.72;;;9.40;42.20;;;;;;10486457;28;20105;-67
2021/03/07 16:33:30;;;;;;;10.13;4.75;;;9.30;42.50;;;;;;10486469;28;20308;-67
2021/03/07 16:38:34;;;;;;;8.35;5.28;;;9.20;43.00;;;;;;10479148;28;20060;-67
2021/03/07 16:43:37;;;;;;;7.90;5.78;;;9.10;43.00;;;;;;10473476;28;20094;-67
2021/03/07 16:48:40;;;;;;;10.30;5.43;;;8.80;44.20;;;;;;10486216;28;20049;-67
2021/03/07 16:53:43;;;;;;;8.43;5.38;;;8.60;44.50;;;;;;10485980;28;20509;-67
2021/03/07 16:58:46;;;;;;;8.23;5.78;;;8.50;44.70;;;;;;10476268;28;20095;-67
2021/03/07 17:03:49;;;;;;;9.80;5.50;;;8.30;45.80;;;;;;10453789;28;20470;-66
2021/03/07 17:08:52;;;;;;;8.10;5.63;;;8.10;47.10;;;;;;10486258;28;20042;-67
2021/03/07 17:13:54;;;;;;;9.15;5.75;;;7.90;47.40;;;;;;10475521;28;20500;-67
2021/03/07 17:18:57;;;;;;;9.77;6.45;;;7.70;47.60;;;;;;10468390;28;20401;-67
2021/03/07 17:24:00;;;;;;;10.43;6.82;;;7.50;48.00;;;;;;10485319;28;20058;-67
2021/03/07 17:29:05;;;;;;;10.15;7.18;;;7.30;48.80;;;;;;10490546;28;20076;-67
2021/03/07 17:34:08;;;;;;;11.80;7.20;;;7.20;49.50;;;;;;10480943;28;20057;-68
2021/03/07 17:39:11;;;;;;;11.07;7.28;;;7.00;50.30;;;;;;10475516;28;20439;-67
2021/03/07 17:44:14;;;;;;;9.68;6.93;;;6.90;51.20;;;;;;10483222;28;20447;-67
2021/03/07 17:49:17;;;;;;;9.23;7.25;;;6.80;51.80;;;;;;10480779;28;20049;-68
2021/03/07 17:54:24;;;;;;;13.70;7.78;;;6.70;52.60;;;;;;10481068;28;20059;-67
2021/03/07 17:59:45;;;;;;;10.40;8.10;;;6.60;53.20;;;;;;10480480;28;20040;-68
2021/03/07 18:04:48;;;;;;;13.05;8.77;;;6.50;53.80;;;;;;10482318;28;20052;-67
2021/03/07 18:09:51;;;;;;;11.55;8.65;;;6.40;54.40;;;;;;10487967;28;20129;-67
2021/03/07 18:14:54;;;;;;;11.57;8.52;;;6.30;55.00;;;;;;10565825;28;20075;-67
2021/03/07 18:19:57;;;;;;;12.77;9.05;;;6.20;55.30;;;;;;10569028;28;20043;-67
2021/03/07 18:24:59;;;;;;;10.95;8.60;;;6.20;56.20;;;;;;10566105;28;20100;-67
2021/03/07 18:30:04;;;;;;;12.27;9.10;;;6.10;56.40;;;;;;10567425;28;20100;-68
2021/03/07 18:35:07;;;;;;;11.93;8.90;;;6.00;56.80;;;;;;10568379;28;20052;-67
2021/03/07 18:40:11;;;;;;;11.98;8.82;;;5.90;57.50;;;;;;10566064;28;20108;-67
2021/03/07 18:45:13;;;;;;;47.10;24.90;;;5.80;57.40;;;;;;10575232;28;20564;-67
2021/03/07 18:50:16;;;;;;;67.00;30.00;;;5.80;57.30;;;;;;10575036;28;20052;-67
2021/03/07 18:55:19;;;;;;;42.35;31.65;;;5.70;57.20;;;;;;10556953;28;20079;-67
2021/03/07 19:00:22;;;;;;;12.55;8.70;;;5.70;57.90;;;;;;10574584;28;20101;-67
2021/03/07 19:05:26;;;;;;;12.23;8.98;;;5.50;58.40;;;;;;10574273;28;20121;-67
2021/03/07 19:10:28;;;;;;;12.32;9.10;;;5.40;59.20;;;;;;10572497;28;20096;-76
2021/03/07 19:15:31;;;;;;;12.23;8.65;;;5.30;60.40;;;;;;10572768;28;20047;-76
2021/03/07 19:20:34;;;;;;;11.55;8.38;;;5.10;61.60;;;;;;10573329;28;20097;-76
2021/03/07 19:25:36;;;;;;;12.93;9.55;;;5.00;61.30;;;;;;10573979;28;20043;-76
2021/03/07 19:30:39;;;;;;;13.60;9.48;;;4.90;62.10;;;;;;10571958;28;20130;-76
2021/03/07 19:35:49;;;;;;;12.93;9.02;;;4.80;63.50;;;;;;10573196;28;20051;-76
2021/03/07 19:40:53;;;;;;;12.23;8.73;;;4.70;65.10;;;;;;10573355;28;20104;-75
2021/03/07 19:45:59;;;;;;;12.55;9.60;;;4.50;66.40;;;;;;10573150;28;20047;-76
2021/03/07 19:51:04;;;;;;;14.77;9.60;;;4.40;68.70;;;;;;10555196;28;20048;-76
2021/03/07 19:56:08;;;;;;;12.85;9.82;;;4.30;71.20;;;;;;10572844;28;20392;-76
2021/03/07 20:01:12;;;;;;;13.70;10.50;;;4.20;72.50;;;;;;10572187;28;20389;-75
2021/03/07 20:06:34;;;;;;;14.73;11.73;;;4.10;75.10;;;;;;10572246;28;20407;-76
2021/03/07 20:11:38;;;;;;;19.48;14.45;;;3.90;79.10;;;;;;10571819;28;20050;-76
2021/03/07 20:16:43;;;;;;;15.90;11.20;;;3.80;83.60;;;;;;10571514;28;20100;-75
2021/03/07 20:21:47;;;;;;;14.77;11.18;;;3.70;86.60;;;;;;10570995;28;20043;-76
2021/03/07 20:26:51;;;;;;;14.70;10.48;;;3.80;87.80;;;;;;10570502;28;20047;-75
2021/03/07 20:31:56;;;;;;;15.57;9.93;;;3.80;89.30;;;;;;10571416;28;20047;-75
2021/03/07 20:37:00;;;;;;;17.50;10.93;;;3.70;88.20;;;;;;10570981;28;20134;-76
2021/03/07 20:42:04;;;;;;;14.02;10.57;;;3.70;90.20;;;;;;10570828;28;20507;-75
2021/03/07 20:47:08;;;;;;;17.63;11.95;;;3.50;90.60;;;;;;10570442;28;20047;-76
2021/03/07 20:52:12;;;;;;;16.08;12.90;;;3.40;92.30;;;;;;10570155;28;20051;-76
2021/03/07 20:57:15;;;;;;;15.52;11.98;;;3.20;94.60;;;;;;10570257;28;20187;-76
2021/03/07 21:02:20;;;;;;;15.38;11.68;;;3.10;95.90;;;;;;10569588;28;20460;-75
2021/03/07 21:07:25;;;;;;;15.73;12.13;;;3.10;97.70;;;;;;10569867;28;20150;-75
2021/03/07 21:12:28;;;;;;;15.88;11.63;;;3.00;99.90;;;;;;10569610;28;20578;-76
2021/03/07 21:17:31;;;;;;;18.73;13.05;;;3.00;99.90;;;;;;10569342;28;20093;-76
2021/03/07 21:22:35;;;;;;;20.58;14.00;;;3.00;99.90;;;;;;10569574;28;20050;-76
2021/03/07 21:27:38;;;;;;;18.90;13.57;;;2.90;99.90;;;;;;10569444;28;20051;-76
2021/03/07 21:32:41;;;;;;;15.88;12.18;;;2.90;99.90;;;;;;10569330;28;20040;-75
2021/03/07 21:37:43;;;;;;;11.30;9.00;;;2.80;99.90;;;;;;10569033;28;20055;-76
2021/03/07 21:42:46;;;;;;;24.00;15.32;;;2.90;99.90;;;;;;10569339;28;20096;-76
2021/03/07 21:47:50;;;;;;;15.90;12.15;;;2.80;99.90;;;;;;10569458;28;20539;-76
2021/03/07 21:52:53;;;;;;;12.93;9.25;;;2.60;99.90;;;;;;10568928;28;20572;-76
2021/03/07 21:57:56;;;;;;;12.10;9.55;;;2.40;99.90;;;;;;10569441;28;20472;-76
2021/03/07 22:02:58;;;;;;;18.48;13.77;;;2.50;99.90;;;;;;10569200;28;20071;-75
2021/03/07 22:08:02;;;;;;;18.20;12.98;;;2.50;99.90;;;;;;10569235;28;20116;-75
2021/03/07 22:13:05;;;;;;;18.52;13.15;;;2.30;99.90;;;;;;10570669;28;20048;-76
2021/03/07 22:18:08;;;;;;;18.25;13.45;;;2.20;99.90;;;;;;10576415;28;20393;-77
2021/03/07 22:23:12;;;;;;;21.08;15.43;;;2.10;99.90;;;;;;10576774;28;20487;-76
2021/03/07 22:28:14;;;;;;;17.73;12.77;;;2.10;99.90;;;;;;10559180;28;20051;-76
2021/03/07 22:33:18;;;;;;;16.58;10.75;;;2.00;99.90;;;;;;10576611;28;20047;-76
2021/03/07 22:38:20;;;;;;;15.10;10.75;;;1.90;99.90;;;;;;10576545;28;20050;-76
2021/03/07 22:43:23;;;;;;;13.75;11.18;;;1.80;99.90;;;;;;10576430;28;20545;-76
2021/03/07 22:48:26;;;;;;;14.15;10.20;;;1.70;99.90;;;;;;10576113;28;20076;-76
2021/03/07 22:53:29;;;;;;;15.35;11.73;;;1.70;99.90;;;;;;10575685;28;20054;-76
2021/03/07 22:58:32;;;;;;;14.55;11.75;;;1.60;99.90;;;;;;10575358;28;20101;-76
2021/03/07 23:03:34;;;;;;;12.63;10.45;;;1.50;99.90;;;;;;10575215;28;20055;-76
2021/03/07 23:08:38;;;;;;;13.70;10.85;;;1.50;99.90;;;;;;10575143;28;20736;-76
2021/03/07 23:13:41;;;;;;;14.75;10.65;;;1.50;99.90;;;;;;10573748;28;20056;-76
2021/03/07 23:18:43;;;;;;;14.35;11.23;;;1.40;99.90;;;;;;10556930;28;20063;-76
2021/03/07 23:23:46;;;;;;;14.45;10.63;;;1.30;99.90;;;;;;10573694;28;20043;-76
2021/03/07 23:28:49;;;;;;;13.93;10.20;;;1.30;99.90;;;;;;10574447;28;20074;-77
2021/03/07 23:33:51;;;;;;;16.60;11.68;;;1.20;99.90;;;;;;10574340;28;20100;-76
2021/03/07 23:38:54;;;;;;;16.20;11.35;;;1.10;99.90;;;;;;10556587;28;20044;-76
2021/03/07 23:43:58;;;;;;;13.68;10.98;;;1.10;99.90;;;;;;10573754;28;20134;-76
2021/03/07 23:49:00;;;;;;;18.58;13.63;;;1.00;99.90;;;;;;10572791;28;20040;-76
2021/03/07 23:54:03;;;;;;;14.98;11.50;;;1.00;99.90;;;;;;10555334;28;20056;-76
2021/03/07 23:59:06;;;;;;;16.83;13.18;;;0.90;99.90;;;;;;10573164;28;20096;-76
